createdAt,value
2023-04-04T00:01:17.701Z,24.12
2023-04-04T00:03:47.607Z,24.12
2023-04-04T00:06:17.394Z,24.12
2023-04-04T00:08:48.727Z,24.14
2023-04-04T00:11:18.408Z,24.15
2023-04-04T00:13:48.290Z,24.16
2023-04-04T00:16:20.614Z,24.17
2023-04-04T00:18:50.514Z,24.17
2023-04-04T00:21:20.300Z,24.16
2023-04-04T00:23:53.310Z,24.18
2023-04-04T00:26:23.821Z,24.17
2023-04-04T00:28:53.798Z,24.16
2023-04-04T00:31:24.735Z,24.18
2023-04-04T00:33:54.514Z,24.18
2023-04-04T00:36:25.180Z,24.18
2023-04-04T00:38:54.839Z,24.19
2023-04-04T00:41:25.429Z,24.21
2023-04-04T00:43:55.179Z,24.20
2023-04-04T00:46:26.691Z,24.22
2023-04-04T00:48:57.123Z,24.22
2023-04-04T00:51:27.047Z,24.24
2023-04-04T00:53:57.061Z,24.23
2023-04-04T00:56:26.970Z,24.25
2023-04-04T00:58:57.109Z,24.24
2023-04-04T01:01:29.609Z,24.28
2023-04-04T01:04:04.445Z,24.27
2023-04-04T01:06:37.710Z,24.30
2023-04-04T01:09:08.171Z,24.31
2023-04-04T01:11:37.952Z,24.35
2023-04-04T01:14:07.874Z,24.34
2023-04-04T01:16:37.956Z,24.36
2023-04-04T01:19:08.480Z,24.37
2023-04-04T01:21:39.069Z,24.36
2023-04-04T01:24:09.086Z,24.39
2023-04-04T01:26:39.159Z,24.37
2023-04-04T01:29:08.948Z,24.38
2023-04-04T01:31:44.041Z,24.32
2023-04-04T01:34:17.178Z,24.37
2023-04-04T01:36:52.458Z,24.38
2023-04-04T01:39:42.112Z,24.37
2023-04-04T01:42:12.318Z,24.39
2023-04-04T01:44:42.165Z,24.39
2023-04-04T01:47:11.868Z,24.43
2023-04-04T01:49:41.531Z,24.39
2023-04-04T01:52:11.166Z,24.41
2023-04-04T01:54:44.213Z,24.45
2023-04-04T01:57:14.409Z,24.42
2023-04-04T01:59:44.094Z,24.45
2023-04-04T02:02:13.897Z,24.47
2023-04-04T02:04:43.717Z,24.49
2023-04-04T02:07:22.631Z,24.51
2023-04-04T02:09:53.175Z,24.50
2023-04-04T02:12:23.892Z,24.49
2023-04-04T02:14:57.550Z,24.52
2023-04-04T02:17:29.997Z,24.55
2023-04-04T02:19:59.888Z,24.55
2023-04-04T02:22:29.846Z,24.54
2023-04-04T02:25:02.215Z,24.54
2023-04-04T02:27:32.060Z,24.52
2023-04-04T02:30:02.764Z,24.51
2023-04-04T02:32:32.515Z,24.56
2023-04-04T02:35:02.276Z,24.54
2023-04-04T02:37:32.213Z,24.58
2023-04-04T02:40:02.118Z,24.59
2023-04-04T02:42:32.007Z,24.61
2023-04-04T02:45:02.405Z,24.63
2023-04-04T02:47:32.132Z,24.64
2023-04-04T02:50:01.810Z,24.59
2023-04-04T02:52:32.214Z,24.64
2023-04-04T02:55:02.406Z,24.64
2023-04-04T02:57:32.242Z,24.66
2023-04-04T03:00:01.971Z,24.67
2023-04-04T03:02:32.413Z,24.65
2023-04-04T03:05:02.514Z,24.64
2023-04-04T03:07:32.440Z,24.65
2023-04-04T03:10:04.591Z,24.70
2023-04-04T03:12:34.321Z,24.65
2023-04-04T03:15:04.667Z,24.68
2023-04-04T03:17:35.273Z,24.68
2023-04-04T03:20:07.902Z,24.64
2023-04-04T03:22:37.611Z,24.70
2023-04-04T03:25:07.759Z,24.71
2023-04-04T03:27:38.540Z,24.68
2023-04-04T03:30:10.533Z,24.68
2023-04-04T03:32:41.083Z,24.69
2023-04-04T03:35:12.194Z,24.66
2023-04-04T03:37:46.095Z,24.68
2023-04-04T03:40:17.819Z,24.66
2023-04-04T03:42:48.353Z,24.48
2023-04-04T03:45:19.415Z,24.43
2023-04-04T03:47:50.346Z,24.62
2023-04-04T03:50:21.177Z,24.63
2023-04-04T03:52:51.697Z,24.67
2023-04-04T03:55:22.167Z,24.71
2023-04-04T03:57:52.856Z,24.70
2023-04-04T04:00:23.371Z,24.68
2023-04-04T04:02:53.219Z,24.69
2023-04-04T04:05:23.191Z,24.67
2023-04-04T04:07:54.594Z,24.71
2023-04-04T04:10:24.948Z,24.72
2023-04-04T04:12:55.774Z,24.78
2023-04-04T04:15:26.941Z,24.79
2023-04-04T04:18:00.419Z,24.72
2023-04-04T04:20:30.478Z,24.74
2023-04-04T04:23:00.983Z,24.78
2023-04-04T04:25:31.063Z,24.80
2023-04-04T04:28:00.818Z,24.76
2023-04-04T04:30:30.801Z,24.66
2023-04-04T04:33:00.868Z,24.63
2023-04-04T04:35:33.741Z,24.49
2023-04-04T04:38:03.638Z,24.65
2023-04-04T04:40:34.221Z,24.60
2023-04-04T04:43:04.342Z,24.62
2023-04-04T04:45:34.506Z,24.58
2023-04-04T04:48:05.254Z,24.52
2023-04-04T04:50:35.262Z,24.49
2023-04-04T04:53:05.939Z,24.60
2023-04-04T04:55:35.568Z,24.67
2023-04-04T04:58:07.787Z,24.65
2023-04-04T05:00:38.473Z,24.48
2023-04-04T05:03:11.440Z,24.61
2023-04-04T05:05:41.208Z,24.53
2023-04-04T05:08:11.013Z,24.65
2023-04-04T05:10:41.840Z,24.46
2023-04-04T05:13:15.554Z,24.50
2023-04-04T05:15:45.303Z,24.54
2023-04-04T05:18:15.110Z,24.49
2023-04-04T05:20:45.099Z,24.55
2023-04-04T05:23:14.810Z,24.62
2023-04-04T05:25:44.547Z,24.52
2023-04-04T05:28:14.480Z,24.52
2023-04-04T05:30:44.242Z,24.63
2023-04-04T05:33:13.940Z,24.70
2023-04-04T05:35:43.742Z,24.60
2023-04-04T05:38:14.077Z,24.58
2023-04-04T05:40:43.825Z,24.46
2023-04-04T05:43:14.114Z,24.62
2023-04-04T05:45:43.887Z,24.65
2023-04-04T05:48:13.589Z,24.68
2023-04-04T05:50:44.471Z,24.59
2023-04-04T05:53:14.193Z,24.45
2023-04-04T05:55:43.868Z,24.39
2023-04-04T05:58:14.356Z,24.48
2023-04-04T06:00:44.237Z,24.46
2023-04-04T06:03:14.251Z,24.62
2023-04-04T06:05:46.145Z,24.74
2023-04-04T06:08:15.796Z,24.77
2023-04-04T06:10:45.426Z,24.78
2023-04-04T06:13:15.136Z,24.82
2023-04-04T06:15:44.854Z,24.75
2023-04-04T06:18:14.615Z,24.77
2023-04-04T06:20:44.298Z,24.72
2023-04-04T06:23:14.206Z,24.77
2023-04-04T06:25:43.877Z,24.75
2023-04-04T06:28:17.335Z,24.72
2023-04-04T06:30:47.231Z,24.72
2023-04-04T06:33:17.163Z,24.75
2023-04-04T06:35:47.444Z,24.79
2023-04-04T06:38:17.122Z,24.66
2023-04-04T06:40:46.779Z,24.72
2023-04-04T06:43:17.019Z,24.68
2023-04-04T06:45:46.735Z,24.74
2023-04-04T06:48:17.396Z,24.64
2023-04-04T06:50:47.711Z,24.62
2023-04-04T06:53:17.407Z,24.68
2023-04-04T06:55:47.028Z,24.71
2023-04-04T06:58:16.943Z,24.68
2023-04-04T07:00:46.665Z,24.73
2023-04-04T07:03:16.446Z,24.72
2023-04-04T07:05:46.264Z,24.63
2023-04-04T07:08:15.956Z,24.65
2023-04-04T07:10:45.907Z,24.68
2023-04-04T07:13:16.172Z,24.67
2023-04-04T07:15:51.720Z,24.66
2023-04-04T07:18:21.380Z,24.61
2023-04-04T07:20:51.124Z,24.66
2023-04-04T07:23:20.764Z,24.66
2023-04-04T07:25:50.451Z,24.66
2023-04-04T07:28:20.078Z,24.67
2023-04-04T07:30:49.759Z,24.68
2023-04-04T07:33:19.445Z,24.63
2023-04-04T07:35:50.095Z,24.62
2023-04-04T07:38:20.500Z,24.65
2023-04-04T07:40:52.953Z,24.64
2023-04-04T07:43:22.970Z,24.57
2023-04-04T07:45:52.621Z,24.56
2023-04-04T07:48:23.789Z,24.52
2023-04-04T07:50:53.382Z,24.47
2023-04-04T07:53:23.038Z,24.53
2023-04-04T07:55:52.687Z,24.57
2023-04-04T07:58:23.702Z,24.58
2023-04-04T08:00:53.564Z,24.46
2023-04-04T08:03:25.777Z,24.58
2023-04-04T08:05:55.678Z,24.61
2023-04-04T08:08:25.414Z,24.57
2023-04-04T08:10:55.142Z,24.54
2023-04-04T08:13:24.848Z,24.57
2023-04-04T08:15:54.527Z,24.56
2023-04-04T08:18:24.230Z,24.49
2023-04-04T08:20:53.913Z,24.53
2023-04-04T08:23:23.565Z,24.63
2023-04-04T08:25:53.300Z,24.54
2023-04-04T08:28:23.037Z,24.52
2023-04-04T08:30:55.867Z,24.51
2023-04-04T08:33:37.163Z,24.58
2023-04-04T08:36:16.391Z,24.51
2023-04-04T08:38:46.177Z,24.58
2023-04-04T08:41:17.352Z,24.48
2023-04-04T08:43:55.872Z,24.48
2023-04-04T08:46:25.941Z,24.48
2023-04-04T08:48:55.928Z,24.47
2023-04-04T08:51:25.783Z,24.55
2023-04-04T08:53:55.671Z,24.54
2023-04-04T08:56:26.038Z,24.52
2023-04-04T08:58:55.816Z,24.52
2023-04-04T09:01:25.483Z,24.52
2023-04-04T09:03:55.140Z,24.50
2023-04-04T09:06:25.508Z,24.38
2023-04-04T09:08:55.632Z,24.42
2023-04-04T09:11:25.302Z,24.44
2023-04-04T09:13:55.017Z,24.52
2023-04-04T09:16:25.234Z,24.45
2023-04-04T09:18:55.158Z,24.46
2023-04-04T09:21:24.823Z,24.41
2023-04-04T09:24:04.569Z,24.34
2023-04-04T09:26:55.827Z,24.38
2023-04-04T09:29:25.543Z,24.43
2023-04-04T09:31:55.395Z,24.47
2023-04-04T09:34:25.182Z,24.53
2023-04-04T09:36:55.639Z,24.50
2023-04-04T09:39:25.670Z,24.53
2023-04-04T09:41:56.063Z,24.51
2023-04-04T09:44:26.540Z,24.51
2023-04-04T09:46:56.265Z,24.50
2023-04-04T09:49:25.968Z,24.49
2023-04-04T09:51:58.749Z,24.52
2023-04-04T09:54:30.130Z,24.49
2023-04-04T09:57:00.401Z,24.49
2023-04-04T09:59:30.084Z,24.46
2023-04-04T10:01:59.856Z,24.49
2023-04-04T10:04:30.360Z,24.42
2023-04-04T10:07:02.692Z,24.54
2023-04-04T10:09:32.367Z,24.45
2023-04-04T10:12:12.281Z,24.42
2023-04-04T10:14:41.999Z,24.35
2023-04-04T10:17:15.153Z,24.43
2023-04-04T10:19:44.811Z,24.45
2023-04-04T10:22:14.467Z,24.46
2023-04-04T10:24:44.149Z,24.44
2023-04-04T10:27:13.789Z,24.33
2023-04-04T10:29:43.553Z,24.40
2023-04-04T10:32:14.890Z,24.43
2023-04-04T10:35:05.006Z,24.39
2023-04-04T10:37:40.163Z,24.42
2023-04-04T10:40:21.042Z,24.47
2023-04-04T10:42:50.737Z,24.48
2023-04-04T10:45:21.672Z,24.48
2023-04-04T10:47:51.792Z,24.50
2023-04-04T10:50:22.156Z,24.47
2023-04-04T10:52:51.941Z,24.41
2023-04-04T10:55:21.575Z,24.44
2023-04-04T10:57:54.138Z,24.35
2023-04-04T11:00:25.753Z,24.48
2023-04-04T11:02:56.124Z,24.56
2023-04-04T11:05:48.751Z,24.63
2023-04-04T11:08:23.886Z,24.65
2023-04-04T11:10:54.898Z,24.67
2023-04-04T11:13:37.359Z,24.67
2023-04-04T11:16:17.160Z,24.67
2023-04-04T11:18:50.312Z,24.70
2023-04-04T11:21:21.412Z,24.71
2023-04-04T11:23:50.970Z,24.72
2023-04-04T11:26:30.009Z,24.71
2023-04-04T11:29:00.428Z,24.71
2023-04-04T11:31:31.679Z,24.72
2023-04-04T11:34:05.142Z,24.72
2023-04-04T11:36:41.714Z,24.70
2023-04-04T11:39:16.440Z,24.71
2023-04-04T11:42:18.034Z,24.67
2023-04-04T11:44:56.759Z,24.68
2023-04-04T11:47:26.687Z,24.68
2023-04-04T11:49:56.480Z,24.67
2023-04-04T11:52:27.002Z,24.67
2023-04-04T11:54:56.681Z,24.63
2023-04-04T11:57:26.341Z,24.64
2023-04-04T11:59:56.399Z,24.64
2023-04-04T12:02:35.753Z,24.62
2023-04-04T12:05:06.583Z,24.63
2023-04-04T12:07:36.933Z,24.63
2023-04-04T12:10:07.521Z,24.63
2023-04-04T12:12:41.126Z,24.63
2023-04-04T12:15:17.255Z,24.62
2023-04-04T12:17:47.923Z,24.62
2023-04-04T12:20:21.493Z,24.63
2023-04-04T12:22:54.851Z,24.63
2023-04-04T12:25:25.587Z,24.64
2023-04-04T12:27:56.506Z,24.63
2023-04-04T12:30:26.230Z,24.64
2023-04-04T12:32:55.890Z,24.64
2023-04-04T12:35:26.305Z,24.64
2023-04-04T12:38:05.830Z,24.62
2023-04-04T12:40:39.225Z,24.61
2023-04-04T12:43:12.011Z,24.61
2023-04-04T12:45:45.371Z,24.61
2023-04-04T12:48:16.473Z,24.63
2023-04-04T12:51:02.401Z,24.60
2023-04-04T12:53:34.470Z,24.62
2023-04-04T12:56:06.100Z,24.62
2023-04-04T12:58:37.102Z,24.61
2023-04-04T13:01:08.524Z,24.61
2023-04-04T13:03:39.382Z,24.59
2023-04-04T13:06:32.472Z,24.57
2023-04-04T13:09:02.757Z,24.56
2023-04-04T13:11:58.093Z,24.56
2023-04-04T13:14:28.263Z,24.55
2023-04-04T13:17:11.014Z,24.55
2023-04-04T13:19:40.724Z,24.56
2023-04-04T13:22:13.341Z,24.56
2023-04-04T13:24:42.996Z,24.54
2023-04-04T13:27:12.699Z,24.55
2023-04-04T13:29:42.514Z,24.52
2023-04-04T13:32:12.185Z,24.54
2023-04-04T13:34:41.850Z,24.53
2023-04-04T13:37:11.548Z,24.54
2023-04-04T13:39:41.237Z,24.53
2023-04-04T13:42:10.953Z,24.52
2023-04-04T13:44:40.712Z,24.53
2023-04-04T13:47:10.354Z,24.52
2023-04-04T13:49:40.004Z,24.50
2023-04-04T13:52:09.676Z,24.52
2023-04-04T13:54:39.346Z,24.52
2023-04-04T13:57:08.980Z,24.51
2023-04-04T13:59:41.675Z,24.49
2023-04-04T14:02:12.125Z,24.52
2023-04-04T14:04:41.914Z,24.51
2023-04-04T14:07:12.811Z,24.52
2023-04-04T14:09:42.450Z,24.51
2023-04-04T14:14:42.878Z,24.52
2023-04-04T14:17:12.912Z,24.49
2023-04-04T14:19:42.602Z,24.51
2023-04-04T14:22:12.873Z,24.48
2023-04-04T14:24:42.936Z,24.49
2023-04-04T14:27:12.784Z,24.49
2023-04-04T14:29:42.848Z,24.48
2023-04-04T14:32:13.157Z,24.50
2023-04-04T14:34:42.844Z,24.49
2023-04-04T14:37:12.504Z,24.49
2023-04-04T14:39:42.257Z,24.47
2023-04-04T14:42:12.063Z,24.48
2023-04-04T14:44:43.688Z,24.48
2023-04-04T14:47:14.515Z,24.48
2023-04-04T14:49:44.996Z,24.48
2023-04-04T14:52:14.727Z,24.46
2023-04-04T14:54:44.384Z,24.46
2023-04-04T14:57:14.031Z,24.46
2023-04-04T14:59:46.667Z,24.45
2023-04-04T15:02:17.732Z,24.46
2023-04-04T15:04:47.957Z,24.45
2023-04-04T15:07:18.048Z,24.45
2023-04-04T15:09:48.025Z,24.46
2023-04-04T15:12:18.536Z,24.44
2023-04-04T15:14:49.952Z,24.44
2023-04-04T15:17:19.645Z,24.44
2023-04-04T15:19:52.518Z,24.43
2023-04-04T15:22:23.855Z,24.46
2023-04-04T15:24:54.491Z,24.45
2023-04-04T15:27:24.203Z,24.45
2023-04-04T15:29:54.625Z,24.44
2023-04-04T15:32:41.691Z,24.44
2023-04-04T15:35:23.415Z,24.42
2023-04-04T15:37:59.315Z,24.43
2023-04-04T15:40:38.479Z,24.43
2023-04-04T15:43:08.852Z,24.42
2023-04-04T15:45:38.721Z,24.43
2023-04-04T15:48:08.667Z,24.41
2023-04-04T15:50:38.805Z,24.42
2023-04-04T15:53:09.114Z,24.41
2023-04-04T15:55:39.084Z,24.42
2023-04-04T15:58:09.124Z,24.43
2023-04-04T16:00:44.307Z,24.41
2023-04-04T16:03:16.070Z,24.41
2023-04-04T16:05:47.163Z,24.42
2023-04-04T16:08:17.210Z,24.40
2023-04-04T16:10:51.444Z,24.41
2023-04-04T16:13:24.560Z,24.42
2023-04-04T16:15:54.823Z,24.41
2023-04-04T16:18:28.380Z,24.41
2023-04-04T16:21:09.082Z,24.39
2023-04-04T16:23:45.551Z,24.39
2023-04-04T16:26:28.516Z,24.39
2023-04-04T16:28:58.917Z,24.39
2023-04-04T16:31:29.613Z,24.40
2023-04-04T16:34:00.206Z,24.39
2023-04-04T16:36:30.681Z,24.38
2023-04-04T16:39:02.694Z,24.37
2023-04-04T16:41:42.628Z,24.38
2023-04-04T16:44:14.169Z,24.38
2023-04-04T16:46:44.598Z,24.36
2023-04-04T16:49:33.030Z,24.38
2023-04-04T16:52:02.681Z,24.36
2023-04-04T16:54:33.576Z,24.36
2023-04-04T16:57:09.044Z,24.37
2023-04-04T16:59:38.827Z,24.36
2023-04-04T17:02:28.405Z,24.35
2023-04-04T17:05:00.169Z,24.35
2023-04-04T17:07:39.617Z,24.34
2023-04-04T17:10:10.882Z,24.33
2023-04-04T17:13:02.533Z,24.33
2023-04-04T17:15:33.914Z,24.34
2023-04-04T17:18:11.601Z,24.34
2023-04-04T17:20:41.988Z,24.34
2023-04-04T17:23:26.151Z,24.31
2023-04-04T17:25:57.933Z,24.32
2023-04-04T17:28:28.028Z,24.33
2023-04-04T17:30:58.095Z,24.32
2023-04-04T17:33:30.862Z,24.34
2023-04-04T17:36:00.613Z,24.34
2023-04-04T17:38:50.307Z,24.30
2023-04-04T17:41:24.049Z,24.31
2023-04-04T17:44:03.185Z,24.31
2023-04-04T17:46:33.711Z,24.32
2023-04-04T17:49:23.708Z,24.31
2023-04-04T17:52:05.001Z,24.30
2023-04-04T17:54:35.590Z,24.31
2023-04-04T17:57:09.028Z,24.32
2023-04-04T17:59:39.730Z,24.31
2023-04-04T18:05:02.719Z,24.30
2023-04-04T18:07:35.801Z,24.30
2023-04-04T18:10:16.780Z,24.31
2023-04-04T18:12:55.450Z,24.30
2023-04-04T18:15:36.951Z,24.19
2023-04-04T18:18:07.920Z,24.26
2023-04-04T18:20:47.829Z,24.29
2023-04-04T18:26:13.595Z,24.28
2023-04-04T18:28:45.626Z,24.29
2023-04-04T18:31:20.419Z,24.30
2023-04-04T18:33:53.912Z,24.30
2023-04-04T18:36:39.559Z,24.30
2023-04-04T18:39:11.775Z,24.30
2023-04-04T18:41:42.406Z,24.30
2023-04-04T18:44:12.298Z,24.30
2023-04-04T18:46:42.831Z,24.29
2023-04-04T18:49:13.569Z,24.28
2023-04-04T18:51:44.192Z,24.30
2023-04-04T18:54:14.901Z,24.29
2023-04-04T18:56:45.297Z,24.30
2023-04-04T18:59:16.829Z,24.28
2023-04-04T19:01:47.201Z,24.28
2023-04-04T19:04:18.678Z,24.27
2023-04-04T19:06:52.972Z,24.27
2023-04-04T19:09:23.235Z,24.26
2023-04-04T19:11:54.747Z,24.28
2023-04-04T19:14:24.990Z,24.27
2023-04-04T19:16:55.560Z,24.27
2023-04-04T19:19:26.436Z,24.26
2023-04-04T19:21:56.959Z,24.28
2023-04-04T19:24:27.381Z,24.28
2023-04-04T19:26:57.814Z,24.28
2023-04-04T19:29:28.535Z,24.28
2023-04-04T19:31:58.376Z,24.25
2023-04-04T19:34:28.043Z,24.26
2023-04-04T19:36:57.892Z,24.27
2023-04-04T19:39:27.642Z,24.26
2023-04-04T19:41:58.840Z,24.26
2023-04-04T19:44:28.530Z,24.27
2023-04-04T19:47:00.370Z,24.27
2023-04-04T19:49:34.570Z,24.25
2023-04-04T19:52:07.601Z,24.25
2023-04-04T19:54:41.747Z,24.27
2023-04-04T19:57:25.446Z,24.24
2023-04-04T20:00:15.115Z,24.21
2023-04-04T20:02:55.452Z,23.92
2023-04-04T20:05:34.220Z,23.64
2023-04-04T20:08:03.942Z,23.68
2023-04-04T20:10:41.503Z,23.66
2023-04-04T20:13:11.630Z,23.63
2023-04-04T20:15:51.190Z,23.67
2023-04-04T20:18:26.975Z,23.55
2023-04-04T20:21:04.311Z,23.57
2023-04-04T20:23:34.606Z,23.50
2023-04-04T20:26:08.452Z,23.46
2023-04-04T20:28:45.741Z,23.42
2023-04-04T20:31:19.782Z,23.45
2023-04-04T20:33:49.866Z,23.47
2023-04-04T20:36:22.488Z,23.47
2023-04-04T20:38:52.195Z,23.37
2023-04-04T20:41:25.788Z,23.40
2023-04-04T20:43:59.715Z,23.50
2023-04-04T20:46:29.890Z,23.48
2023-04-04T20:48:59.578Z,23.50
2023-04-04T20:51:35.424Z,23.45
2023-04-04T20:54:05.607Z,23.43
2023-04-04T20:56:44.428Z,23.37
2023-04-04T20:59:36.782Z,23.43
2023-04-04T21:02:18.330Z,23.39
2023-04-04T21:04:50.948Z,23.45
2023-04-04T21:07:43.850Z,23.46
2023-04-04T21:10:31.890Z,23.42
2023-04-04T21:13:04.910Z,23.34
2023-04-04T21:15:40.174Z,23.35
2023-04-04T21:18:14.015Z,23.41
2023-04-04T21:20:49.382Z,23.39
2023-04-04T21:23:28.140Z,23.38
2023-04-04T21:25:59.075Z,23.35
2023-04-04T21:28:44.216Z,23.39
2023-04-04T21:31:17.745Z,23.40
2023-04-04T21:33:52.096Z,23.42
2023-04-04T21:36:30.745Z,23.35
2023-04-04T21:39:04.716Z,23.36
2023-04-04T21:41:37.695Z,23.31
2023-04-04T21:44:09.053Z,23.40
2023-04-04T21:46:40.318Z,23.31
2023-04-04T21:49:10.653Z,23.41
2023-04-04T21:51:40.302Z,23.35
2023-04-04T21:54:10.092Z,23.42
2023-04-04T21:56:42.656Z,23.37
2023-04-04T21:59:12.377Z,23.34
2023-04-04T22:01:42.395Z,23.26
2023-04-04T22:04:12.250Z,23.37
2023-04-04T22:06:41.954Z,23.40
2023-04-04T22:09:12.200Z,23.36
2023-04-04T22:11:45.839Z,23.35
2023-04-04T22:14:18.863Z,23.38
2023-04-04T22:16:48.691Z,23.33
2023-04-04T22:19:18.369Z,23.37
2023-04-04T22:21:48.671Z,23.39
2023-04-04T22:24:19.761Z,23.35
2023-04-04T22:26:51.864Z,23.31
2023-04-04T22:29:21.583Z,23.33
2023-04-04T22:31:51.309Z,23.32
2023-04-04T22:34:21.057Z,23.36
2023-04-04T22:36:50.682Z,23.40
2023-04-04T22:39:22.018Z,23.42
2023-04-04T22:41:51.698Z,23.51
2023-04-04T22:44:24.380Z,23.93
2023-04-04T22:46:54.185Z,24.05
2023-04-04T22:49:23.862Z,24.13
2023-04-04T22:51:56.960Z,24.17
2023-04-04T22:54:26.656Z,24.18
2023-04-04T22:56:56.321Z,24.16
2023-04-04T22:59:27.340Z,24.24
2023-04-04T23:01:57.585Z,24.25
2023-04-04T23:04:28.607Z,24.28
2023-04-04T23:06:58.243Z,24.26
2023-04-04T23:09:31.651Z,24.25
2023-04-04T23:12:01.440Z,24.30
2023-04-04T23:14:32.409Z,24.29
2023-04-04T23:17:02.111Z,24.30
2023-04-04T23:19:31.785Z,24.30
2023-04-04T23:22:01.531Z,24.27
2023-04-04T23:24:31.232Z,24.31
2023-04-04T23:27:01.114Z,24.30
2023-04-04T23:29:30.747Z,24.31
2023-04-04T23:32:00.479Z,24.34
2023-04-04T23:34:30.166Z,24.32
2023-04-04T23:37:02.832Z,24.32
2023-04-04T23:39:32.804Z,24.32
2023-04-04T23:42:02.678Z,24.35
2023-04-04T23:44:32.368Z,24.34
2023-04-04T23:47:02.080Z,24.32
2023-04-04T23:49:31.866Z,24.36
2023-04-04T23:52:04.134Z,24.37
2023-04-04T23:54:33.880Z,24.33
2023-04-04T23:57:04.097Z,24.34
2023-04-04T23:59:33.750Z,24.37
